createdAt,value
2022-12-06T00:01:10.739Z,7.24
2022-12-06T00:03:39.780Z,7.22
2022-12-06T00:06:09.271Z,7.32
2022-12-06T00:08:37.695Z,7.28
2022-12-06T00:11:07.684Z,7.25
2022-12-06T00:13:36.140Z,7.25
2022-12-06T00:16:07.752Z,7.09
2022-12-06T00:18:37.095Z,7.12
2022-12-06T00:21:09.719Z,7.07
2022-12-06T00:23:38.622Z,7.12
2022-12-06T00:26:07.722Z,7.29
2022-12-06T00:28:36.123Z,7.22
2022-12-06T00:31:07.767Z,7.31
2022-12-06T00:33:37.009Z,7.09
2022-12-06T00:36:07.770Z,7.26
2022-12-06T00:38:36.519Z,6.98
2022-12-06T00:41:06.747Z,7.21
2022-12-06T00:43:35.465Z,7.27
2022-12-06T00:46:05.810Z,7.08
2022-12-06T00:48:33.962Z,7.08
2022-12-06T00:51:02.126Z,7.07
2022-12-06T00:53:30.224Z,7.13
2022-12-06T00:55:58.090Z,6.96
2022-12-06T00:58:25.939Z,6.84
2022-12-06T01:00:54.394Z,6.91
2022-12-06T01:03:24.074Z,6.99
2022-12-06T01:05:52.329Z,7.12
2022-12-06T01:08:20.758Z,7.19
2022-12-06T01:10:55.573Z,6.93
2022-12-06T01:13:23.513Z,7.06
2022-12-06T01:15:51.892Z,6.87
2022-12-06T01:18:19.691Z,7.04
2022-12-06T01:20:49.265Z,7.07
2022-12-06T01:23:17.329Z,7.07
2022-12-06T01:25:54.488Z,6.98
2022-12-06T01:28:22.389Z,6.93
2022-12-06T01:30:50.351Z,6.81
2022-12-06T01:33:18.279Z,6.89
2022-12-06T01:35:46.294Z,6.74
2022-12-06T01:38:15.637Z,6.75
2022-12-06T01:40:45.805Z,6.80
2022-12-06T01:43:37.757Z,6.79
2022-12-06T01:46:18.797Z,6.83
2022-12-06T01:48:48.605Z,6.71
2022-12-06T01:51:18.212Z,6.80
2022-12-06T01:53:50.152Z,6.79
2022-12-06T01:56:18.227Z,6.77
2022-12-06T01:58:48.131Z,6.55
2022-12-06T02:01:16.230Z,6.55
2022-12-06T02:03:45.408Z,6.67
2022-12-06T02:06:13.691Z,6.64
2022-12-06T02:08:41.795Z,6.68
2022-12-06T02:11:11.282Z,6.79
2022-12-06T02:13:40.408Z,6.76
2022-12-06T02:16:21.773Z,6.55
2022-12-06T02:18:54.824Z,6.26
2022-12-06T02:21:34.945Z,6.67
2022-12-06T02:24:28.400Z,6.77
2022-12-06T02:27:10.511Z,6.72
2022-12-06T02:30:13.319Z,6.67
2022-12-06T02:32:54.885Z,6.71
2022-12-06T02:35:31.345Z,6.73
2022-12-06T02:38:11.464Z,6.73
2022-12-06T02:40:46.042Z,6.57
2022-12-06T02:43:17.552Z,6.75
2022-12-06T02:45:49.006Z,6.58
2022-12-06T02:48:21.231Z,6.48
2022-12-06T02:50:52.871Z,6.64
2022-12-06T02:53:23.482Z,6.71
2022-12-06T02:55:52.492Z,6.38
2022-12-06T02:58:20.412Z,6.67
2022-12-06T03:00:51.756Z,6.56
2022-12-06T03:03:50.416Z,6.53
2022-12-06T03:06:45.499Z,6.57
2022-12-06T03:09:26.038Z,6.49
2022-12-06T03:12:02.897Z,6.59
2022-12-06T03:14:39.275Z,6.67
2022-12-06T03:17:17.002Z,6.73
2022-12-06T03:19:49.807Z,6.65
2022-12-06T03:22:24.291Z,6.63
2022-12-06T03:24:53.789Z,6.38
2022-12-06T03:27:23.654Z,6.31
2022-12-06T03:29:56.944Z,6.47
2022-12-06T03:32:31.327Z,6.51
2022-12-06T03:35:06.905Z,6.50
2022-12-06T03:37:38.954Z,6.33
2022-12-06T03:40:12.719Z,6.54
2022-12-06T03:42:40.775Z,6.38
2022-12-06T03:45:12.025Z,6.35
2022-12-06T03:47:48.090Z,6.52
2022-12-06T03:50:21.847Z,6.48
2022-12-06T03:52:52.343Z,6.50
2022-12-06T03:55:20.228Z,6.47
2022-12-06T03:57:48.071Z,6.49
2022-12-06T04:00:17.785Z,6.42
2022-12-06T04:02:45.810Z,6.41
2022-12-06T04:05:14.118Z,6.53
2022-12-06T04:07:43.447Z,6.38
2022-12-06T04:10:11.995Z,6.40
2022-12-06T04:12:57.162Z,6.53
2022-12-06T04:15:25.070Z,6.62
2022-12-06T04:18:10.421Z,6.55
2022-12-06T04:20:59.812Z,6.44
2022-12-06T04:23:29.743Z,6.19
2022-12-06T04:25:57.557Z,6.37
2022-12-06T04:28:42.662Z,6.12
2022-12-06T04:31:27.898Z,5.90
2022-12-06T04:34:12.997Z,6.29
2022-12-06T04:36:59.306Z,6.32
2022-12-06T04:39:29.125Z,6.25
2022-12-06T04:42:14.803Z,6.36
2022-12-06T04:44:42.948Z,6.40
2022-12-06T04:47:10.946Z,6.42
2022-12-06T04:49:39.335Z,6.17
2022-12-06T04:52:08.644Z,6.30
2022-12-06T04:54:38.643Z,6.32
2022-12-06T04:57:10.974Z,6.31
2022-12-06T04:59:39.855Z,6.38
2022-12-06T05:02:10.023Z,6.46
2022-12-06T05:04:37.890Z,6.39
2022-12-06T05:07:05.985Z,6.30
2022-12-06T05:09:33.875Z,6.23
2022-12-06T05:12:03.147Z,6.30
2022-12-06T05:14:31.252Z,6.19
2022-12-06T05:16:59.392Z,6.06
2022-12-06T05:19:27.861Z,6.19
2022-12-06T05:21:55.715Z,6.12
2022-12-06T05:24:23.609Z,6.02
2022-12-06T05:26:51.497Z,6.13
2022-12-06T05:29:20.921Z,6.24
2022-12-06T05:31:48.840Z,5.98
2022-12-06T05:34:16.785Z,6.29
2022-12-06T05:36:45.906Z,6.30
2022-12-06T05:39:13.758Z,6.47
2022-12-06T05:41:41.620Z,6.06
2022-12-06T05:44:11.533Z,6.33
2022-12-06T05:46:40.745Z,5.98
2022-12-06T05:49:08.700Z,6.16
2022-12-06T05:51:36.571Z,6.09
2022-12-06T05:54:06.598Z,6.06
2022-12-06T05:56:34.804Z,6.31
2022-12-06T05:59:03.339Z,6.27
2022-12-06T06:01:31.238Z,6.21
2022-12-06T06:04:01.745Z,6.03
2022-12-06T06:06:30.009Z,6.15
2022-12-06T06:08:57.885Z,6.12
2022-12-06T06:11:25.718Z,6.18
2022-12-06T06:13:54.463Z,6.26
2022-12-06T06:16:22.513Z,6.16
2022-12-06T06:18:50.400Z,6.29
2022-12-06T06:21:19.625Z,6.40
2022-12-06T06:23:47.510Z,6.36
2022-12-06T06:26:15.317Z,6.45
2022-12-06T06:28:43.199Z,6.21
2022-12-06T06:31:11.092Z,6.23
2022-12-06T06:33:39.029Z,6.19
2022-12-06T06:36:07.483Z,6.19
2022-12-06T06:38:36.860Z,5.93
2022-12-06T06:41:05.459Z,6.20
2022-12-06T06:43:33.724Z,6.37
2022-12-06T06:46:03.322Z,6.39
2022-12-06T06:48:33.114Z,6.37
2022-12-06T06:51:03.399Z,6.28
2022-12-06T06:53:31.399Z,6.38
2022-12-06T06:56:00.646Z,6.08
2022-12-06T06:58:28.554Z,6.36
2022-12-06T07:00:57.880Z,6.31
2022-12-06T07:03:26.708Z,6.45
2022-12-06T07:05:56.019Z,6.62
2022-12-06T07:08:25.273Z,6.56
2022-12-06T07:10:54.243Z,6.75
2022-12-06T07:13:24.899Z,6.59
2022-12-06T07:15:53.228Z,6.38
2022-12-06T07:18:22.042Z,6.41
2022-12-06T07:20:50.495Z,6.51
2022-12-06T07:23:19.729Z,6.61
2022-12-06T07:25:47.548Z,6.78
2022-12-06T07:28:15.399Z,6.62
2022-12-06T07:30:46.185Z,6.52
2022-12-06T07:33:14.335Z,6.04
2022-12-06T07:36:11.047Z,6.30
2022-12-06T07:38:30.281Z,6.33
2022-12-06T07:41:04.834Z,6.57
2022-12-06T07:43:50.555Z,6.68
2022-12-06T07:46:19.840Z,6.54
2022-12-06T07:48:47.767Z,6.59
2022-12-06T07:51:15.670Z,6.39
2022-12-06T07:53:43.644Z,6.67
2022-12-06T07:56:11.966Z,6.67
2022-12-06T07:58:39.914Z,6.48
2022-12-06T08:01:07.982Z,6.55
2022-12-06T08:03:37.485Z,6.63
2022-12-06T08:06:05.826Z,6.49
2022-12-06T08:08:33.890Z,6.10
2022-12-06T08:11:02.715Z,6.41
2022-12-06T08:13:31.404Z,6.50
2022-12-06T08:15:59.684Z,6.60
2022-12-06T08:18:27.751Z,6.66
2022-12-06T08:20:58.870Z,6.61
2022-12-06T08:23:33.697Z,6.65
2022-12-06T08:26:04.281Z,6.58
2022-12-06T08:28:33.421Z,6.79
2022-12-06T08:31:03.215Z,6.64
2022-12-06T08:33:34.307Z,6.65
2022-12-06T08:36:08.989Z,6.66
2022-12-06T08:38:37.321Z,6.70
2022-12-06T08:41:05.952Z,6.75
2022-12-06T08:43:34.002Z,6.91
2022-12-06T08:46:02.092Z,6.71
2022-12-06T08:48:30.130Z,6.58
2022-12-06T08:51:02.646Z,6.65
2022-12-06T08:53:31.946Z,6.70
2022-12-06T08:56:02.836Z,6.70
2022-12-06T08:58:31.398Z,6.88
2022-12-06T09:00:59.472Z,6.75
2022-12-06T09:03:27.730Z,6.79
2022-12-06T09:05:55.665Z,6.93
2022-12-06T09:08:24.013Z,6.82
2022-12-06T09:10:53.491Z,6.77
2022-12-06T09:13:21.715Z,6.72
2022-12-06T09:15:49.780Z,6.66
2022-12-06T09:18:17.819Z,6.92
2022-12-06T09:20:45.931Z,6.80
2022-12-06T09:23:14.178Z,6.96
2022-12-06T09:25:43.311Z,6.92
2022-12-06T09:28:13.384Z,7.04
2022-12-06T09:30:41.411Z,6.69
2022-12-06T09:33:09.427Z,6.44
2022-12-06T09:35:38.035Z,6.88
2022-12-06T09:38:07.121Z,6.96
2022-12-06T09:40:43.319Z,6.67
2022-12-06T09:43:27.340Z,6.79
2022-12-06T09:46:12.021Z,6.81
2022-12-06T09:49:08.915Z,6.66
2022-12-06T09:51:51.645Z,6.72
2022-12-06T09:54:33.887Z,6.82
2022-12-06T09:57:09.301Z,6.72
2022-12-06T09:59:51.235Z,6.91
2022-12-06T10:02:33.200Z,6.77
2022-12-06T10:05:21.039Z,6.81
2022-12-06T10:07:59.976Z,6.86
2022-12-06T10:10:38.019Z,6.96
2022-12-06T10:13:14.202Z,6.89
2022-12-06T10:15:54.210Z,6.93
2022-12-06T10:18:42.100Z,6.82
2022-12-06T10:21:17.584Z,7.02
2022-12-06T10:24:01.790Z,6.65
2022-12-06T10:26:38.285Z,6.82
2022-12-06T10:29:16.348Z,6.77
2022-12-06T10:31:57.531Z,6.95
2022-12-06T10:34:45.810Z,6.99
2022-12-06T10:37:32.501Z,6.65
2022-12-06T10:40:04.484Z,6.59
2022-12-06T10:42:38.541Z,6.41
2022-12-06T10:45:32.420Z,6.81
2022-12-06T10:48:07.992Z,6.37
2022-12-06T10:50:40.510Z,6.72
2022-12-06T10:53:15.555Z,6.81
2022-12-06T10:55:50.290Z,6.92
2022-12-06T10:58:29.848Z,6.70
2022-12-06T11:01:00.609Z,6.84
2022-12-06T11:03:35.433Z,6.99
2022-12-06T11:06:10.600Z,7.06
2022-12-06T11:08:43.434Z,7.18
2022-12-06T11:11:16.650Z,7.12
2022-12-06T11:13:48.944Z,7.19
2022-12-06T11:16:19.933Z,7.18
2022-12-06T11:18:50.277Z,7.23
2022-12-06T11:21:28.187Z,7.07
2022-12-06T11:24:02.752Z,7.17
2022-12-06T11:26:38.487Z,7.09
2022-12-06T11:29:13.058Z,6.68
2022-12-06T11:31:46.859Z,7.08
2022-12-06T11:34:20.221Z,6.83
2022-12-06T11:36:52.933Z,7.05
2022-12-06T11:39:24.810Z,6.86
2022-12-06T11:41:57.167Z,6.86
2022-12-06T11:44:27.731Z,7.07
2022-12-06T11:46:58.711Z,6.75
2022-12-06T11:49:32.917Z,7.08
2022-12-06T11:52:07.187Z,7.15
2022-12-06T11:54:39.577Z,6.80
2022-12-06T11:57:22.242Z,6.87
2022-12-06T12:00:15.143Z,7.15
2022-12-06T12:02:44.278Z,6.88
2022-12-06T12:05:20.720Z,7.16
2022-12-06T12:07:51.731Z,6.84
2022-12-06T12:10:29.365Z,7.03
2022-12-06T12:13:15.043Z,7.10
2022-12-06T12:15:52.382Z,7.03
2022-12-06T12:18:26.269Z,7.07
2022-12-06T12:20:57.547Z,6.98
2022-12-06T12:23:29.505Z,7.09
2022-12-06T12:26:02.362Z,6.86
2022-12-06T12:28:32.234Z,7.10
2022-12-06T12:31:01.768Z,7.05
2022-12-06T12:33:30.383Z,6.86
2022-12-06T12:36:16.415Z,6.92
2022-12-06T12:38:51.321Z,6.78
2022-12-06T12:41:27.141Z,6.73
2022-12-06T12:44:28.545Z,6.59
2022-12-06T12:46:53.801Z,6.64
2022-12-06T12:49:31.977Z,6.78
2022-12-06T12:52:03.229Z,6.66
2022-12-06T12:54:33.555Z,6.73
2022-12-06T12:57:03.398Z,6.80
2022-12-06T12:59:38.533Z,7.00
2022-12-06T13:02:18.626Z,6.49
2022-12-06T13:04:59.838Z,6.92
2022-12-06T13:07:43.214Z,7.25
2022-12-06T13:10:20.143Z,6.93
2022-12-06T13:12:51.979Z,7.04
2022-12-06T13:15:24.922Z,7.11
2022-12-06T13:17:59.977Z,6.97
2022-12-06T13:20:31.271Z,7.17
2022-12-06T13:23:04.866Z,6.90
2022-12-06T13:25:33.321Z,7.05
2022-12-06T13:28:05.773Z,6.76
2022-12-06T13:30:36.729Z,6.90
2022-12-06T13:33:08.397Z,6.68
2022-12-06T13:35:40.327Z,6.94
2022-12-06T13:38:27.225Z,7.06
2022-12-06T13:40:56.482Z,7.03
2022-12-06T13:44:00.467Z,6.85
2022-12-06T13:46:32.224Z,6.89
2022-12-06T13:49:05.863Z,7.04
2022-12-06T13:51:49.829Z,7.03
2022-12-06T13:54:39.952Z,6.81
2022-12-06T13:57:25.955Z,7.06
2022-12-06T13:59:53.879Z,7.07
2022-12-06T14:02:51.661Z,6.97
2022-12-06T14:08:37.301Z,7.02
2022-12-06T14:11:19.780Z,6.93
2022-12-06T14:13:49.595Z,6.58
2022-12-06T14:16:26.802Z,6.80
2022-12-06T14:18:54.828Z,6.80
2022-12-06T14:21:27.480Z,6.76
2022-12-06T14:23:55.396Z,6.92
2022-12-06T14:26:27.448Z,6.95
2022-12-06T14:28:57.473Z,6.93
2022-12-06T14:31:28.255Z,6.82
2022-12-06T14:33:57.370Z,6.94
2022-12-06T14:36:29.077Z,6.97
2022-12-06T14:39:02.691Z,6.72
2022-12-06T14:41:53.299Z,6.95
2022-12-06T14:44:22.899Z,6.98
2022-12-06T14:46:51.077Z,6.85
2022-12-06T14:49:39.596Z,6.89
2022-12-06T14:52:26.343Z,6.73
2022-12-06T14:55:09.551Z,6.78
2022-12-06T14:57:46.621Z,6.94
2022-12-06T15:00:26.274Z,6.85
2022-12-06T15:03:23.862Z,7.08
2022-12-06T15:06:09.252Z,6.89
2022-12-06T15:08:39.228Z,7.09
2022-12-06T15:11:42.507Z,7.08
2022-12-06T15:14:17.276Z,7.13
2022-12-06T15:16:46.766Z,7.01
2022-12-06T15:19:16.135Z,6.92
2022-12-06T15:21:43.979Z,6.98
2022-12-06T15:24:18.107Z,6.86
2022-12-06T15:26:46.109Z,6.99
2022-12-06T15:29:15.798Z,6.92
2022-12-06T15:31:45.719Z,7.00
2022-12-06T15:34:25.160Z,7.11
2022-12-06T15:37:09.045Z,7.01
2022-12-06T15:39:41.400Z,6.76
2022-12-06T15:42:16.932Z,6.67
2022-12-06T15:44:49.597Z,6.85
2022-12-06T15:47:18.181Z,6.78
2022-12-06T15:49:46.064Z,6.65
2022-12-06T15:52:17.407Z,6.79
2022-12-06T15:54:45.585Z,6.80
2022-12-06T15:57:13.460Z,6.81
2022-12-06T15:59:41.329Z,6.84
2022-12-06T16:02:16.413Z,6.80
2022-12-06T16:04:45.358Z,6.83
2022-12-06T16:07:20.005Z,6.74
2022-12-06T16:09:48.449Z,6.80
2022-12-06T16:12:16.344Z,6.73
2022-12-06T16:14:44.210Z,6.87
2022-12-06T16:17:12.050Z,6.66
2022-12-06T16:19:59.071Z,6.69
2022-12-06T16:22:40.799Z,6.87
2022-12-06T16:25:09.393Z,6.76
2022-12-06T16:27:37.346Z,6.91
2022-12-06T16:30:05.917Z,6.50
2022-12-06T16:32:34.129Z,6.32
2022-12-06T16:35:03.704Z,6.61
2022-12-06T16:37:31.756Z,6.78
2022-12-06T16:39:59.603Z,6.86
2022-12-06T16:42:27.444Z,6.47
2022-12-06T16:44:55.281Z,6.20
2022-12-06T16:49:49.867Z,6.47
2022-12-06T16:52:19.124Z,6.70
2022-12-06T16:54:46.991Z,6.76
2022-12-06T16:57:15.640Z,6.79
2022-12-06T16:59:43.615Z,6.91
2022-12-06T17:02:27.449Z,7.02
2022-12-06T17:04:56.230Z,6.87
2022-12-06T17:07:25.444Z,6.72
2022-12-06T17:09:54.049Z,6.96
2022-12-06T17:12:21.930Z,6.92
2022-12-06T17:14:49.810Z,6.97
2022-12-06T17:17:20.171Z,7.03
2022-12-06T17:19:48.562Z,6.88
2022-12-06T17:22:18.638Z,7.10
2022-12-06T17:24:47.855Z,7.04
2022-12-06T17:27:16.730Z,6.74
2022-12-06T17:29:45.434Z,6.75
2022-12-06T17:32:14.036Z,6.88
2022-12-06T17:34:41.885Z,6.92
2022-12-06T17:37:09.811Z,7.04
2022-12-06T17:39:37.777Z,7.12
2022-12-06T17:42:24.470Z,6.80
2022-12-06T17:44:52.609Z,6.92
2022-12-06T17:47:20.913Z,6.85
2022-12-06T17:49:48.968Z,7.08
2022-12-06T17:52:16.960Z,7.17
2022-12-06T17:54:44.816Z,7.19
2022-12-06T17:57:17.590Z,7.03
2022-12-06T17:59:46.932Z,7.24
2022-12-06T18:02:17.478Z,7.12
2022-12-06T18:04:46.508Z,6.68
2022-12-06T18:07:15.084Z,6.98
2022-12-06T18:09:42.944Z,6.81
2022-12-06T18:12:13.134Z,6.75
2022-12-06T18:14:42.335Z,6.99
2022-12-06T18:17:10.483Z,6.97
2022-12-06T18:19:40.359Z,6.83
2022-12-06T18:22:08.587Z,7.07
2022-12-06T18:24:36.714Z,7.05
2022-12-06T18:27:05.457Z,7.09
2022-12-06T18:29:34.271Z,7.00
2022-12-06T18:32:04.251Z,7.25
2022-12-06T18:34:32.342Z,7.06
2022-12-06T18:37:00.279Z,7.18
2022-12-06T18:39:28.255Z,7.24
2022-12-06T18:41:56.475Z,7.20
2022-12-06T18:44:24.643Z,7.30
2022-12-06T18:46:52.573Z,7.15
2022-12-06T18:49:21.815Z,7.24
2022-12-06T18:51:49.747Z,7.16
2022-12-06T18:54:17.656Z,7.24
2022-12-06T18:56:45.499Z,7.27
2022-12-06T18:59:13.625Z,6.94
2022-12-06T19:01:42.137Z,7.13
2022-12-06T19:04:14.310Z,7.16
2022-12-06T19:06:45.416Z,7.41
2022-12-06T19:09:15.542Z,7.21
2022-12-06T19:11:46.717Z,7.20
2022-12-06T19:14:15.680Z,7.35
2022-12-06T19:16:45.851Z,7.16
2022-12-06T19:19:17.094Z,7.29
2022-12-06T19:21:46.900Z,7.17
2022-12-06T19:24:17.139Z,7.09
2022-12-06T19:26:45.280Z,7.30
2022-12-06T19:29:13.818Z,7.34
2022-12-06T19:31:41.744Z,7.40
2022-12-06T19:34:15.498Z,7.49
2022-12-06T19:36:43.647Z,7.25
2022-12-06T19:39:13.761Z,7.36
2022-12-06T19:42:00.045Z,7.21
2022-12-06T19:44:28.862Z,7.45
2022-12-06T19:46:57.572Z,7.43
2022-12-06T19:49:27.222Z,7.30
2022-12-06T19:51:55.228Z,7.47
2022-12-06T19:54:25.996Z,7.52
2022-12-06T19:56:56.921Z,7.48
2022-12-06T19:59:27.019Z,7.44
2022-12-06T20:01:57.975Z,7.33
2022-12-06T20:04:28.971Z,7.42
2022-12-06T20:06:56.876Z,7.56
2022-12-06T20:09:28.355Z,7.44
2022-12-06T20:12:02.036Z,7.49
2022-12-06T20:14:31.262Z,7.55
2022-12-06T20:16:59.131Z,7.44
2022-12-06T20:19:27.049Z,7.43
2022-12-06T20:21:54.919Z,7.55
2022-12-06T20:24:24.337Z,7.51
2022-12-06T20:26:54.994Z,7.21
2022-12-06T20:29:23.774Z,6.89
2022-12-06T20:31:52.295Z,7.27
2022-12-06T20:34:20.443Z,7.45
2022-12-06T20:36:48.631Z,7.29
2022-12-06T20:39:21.852Z,7.47
2022-12-06T20:41:49.894Z,7.59
2022-12-06T20:44:19.734Z,7.54
2022-12-06T20:46:49.554Z,7.52
2022-12-06T20:49:17.512Z,7.38
2022-12-06T20:51:49.694Z,7.54
2022-12-06T20:54:19.800Z,7.25
2022-12-06T20:56:51.412Z,7.25
2022-12-06T20:59:21.425Z,7.36
2022-12-06T21:01:49.410Z,7.50
2022-12-06T21:04:17.924Z,7.64
2022-12-06T21:06:45.841Z,7.67
2022-12-06T21:09:13.785Z,7.62
2022-12-06T21:11:41.720Z,7.80
2022-12-06T21:14:12.434Z,7.43
2022-12-06T21:16:43.207Z,7.52
2022-12-06T21:19:13.779Z,7.57
2022-12-06T21:21:44.531Z,7.70
2022-12-06T21:24:14.188Z,7.45
2022-12-06T21:26:42.215Z,7.45
2022-12-06T21:29:15.872Z,7.22
2022-12-06T21:31:45.682Z,7.32
2022-12-06T21:34:14.431Z,7.06
2022-12-06T21:36:44.993Z,7.24
2022-12-06T21:39:13.467Z,7.14
2022-12-06T21:41:41.336Z,7.22
2022-12-06T21:44:09.247Z,7.32
2022-12-06T21:46:37.182Z,7.31
2022-12-06T21:49:06.483Z,7.29
2022-12-06T21:51:34.329Z,7.08
2022-12-06T21:54:02.207Z,7.24
2022-12-06T21:56:31.569Z,7.09
2022-12-06T21:59:01.237Z,7.25
2022-12-06T22:01:30.554Z,7.06
2022-12-06T22:04:00.333Z,7.14
2022-12-06T22:06:31.401Z,7.25
2022-12-06T22:09:01.323Z,7.36
2022-12-06T22:11:30.672Z,7.22
2022-12-06T22:13:59.590Z,7.38
2022-12-06T22:16:28.302Z,7.04
2022-12-06T22:18:56.470Z,7.10
2022-12-06T22:21:26.989Z,7.25
2022-12-06T22:23:57.964Z,7.25
2022-12-06T22:26:28.172Z,7.36
2022-12-06T22:28:56.417Z,7.46
2022-12-06T22:31:25.929Z,7.32
2022-12-06T22:33:54.556Z,7.34
2022-12-06T22:36:22.677Z,7.38
2022-12-06T22:38:51.215Z,7.32
2022-12-06T22:41:21.188Z,7.35
2022-12-06T22:43:52.157Z,7.18
2022-12-06T22:46:20.868Z,7.14
2022-12-06T22:48:49.449Z,7.25
2022-12-06T22:51:21.859Z,7.22
2022-12-06T22:53:54.496Z,7.16
2022-12-06T22:56:24.050Z,7.22
2022-12-06T22:58:53.674Z,6.92
2022-12-06T23:01:26.832Z,6.96
2022-12-06T23:03:55.541Z,7.12
2022-12-06T23:06:25.307Z,6.86
2022-12-06T23:08:54.328Z,6.44
2022-12-06T23:11:25.996Z,6.69
2022-12-06T23:13:54.823Z,6.59
2022-12-06T23:16:24.825Z,6.57
2022-12-06T23:18:52.972Z,6.80
2022-12-06T23:21:22.637Z,6.77
2022-12-06T23:23:52.396Z,6.48
2022-12-06T23:26:24.877Z,6.60
2022-12-06T23:28:53.015Z,6.23
2022-12-06T23:31:22.779Z,6.22
2022-12-06T23:33:53.667Z,6.24
2022-12-06T23:36:23.807Z,6.59
2022-12-06T23:38:52.421Z,6.34
2022-12-06T23:41:21.908Z,6.23
2022-12-06T23:43:51.863Z,6.42
2022-12-06T23:46:22.930Z,6.66
2022-12-06T23:48:50.929Z,6.40
2022-12-06T23:51:20.695Z,6.61
2022-12-06T23:53:52.355Z,6.40
2022-12-06T23:56:22.376Z,6.56
2022-12-06T23:58:52.950Z,6.58
